Карточка аэропорта UMGG

Внимание!
Информация на этой странице в стадии наполнения.
Если вы не увидели какой-то информации, или заметили неточность - пожалуйста сообщите нам!
Спасибо!
Команда RU-STAFF
Название аэропортаGomel
Название аэропорта (англ.)Gomel
Превышение471 ft. (143.6 m.)
Координаты52°31.614', 31°1.002'
Высота перехода6000 ft
Эшелон переходаFL80; QNH<977hPa - FL90
Коды ответчика0030−0032
Зона ОрВДМинск РПИ (UMMV)
Данные METARUMGG 272000Z 03003MPS 8000 OVC003 10/10 Q1003 NOSIG RMK QBB110
Проноз погоды (TAF)UMGG 271658Z 2718/2818 04006MPS 2000 BR BKN004 TEMPO 2718/2807 01004MPS 0300 SHRA FG BKN002 BKN015CB FM280900 08005MPS 6000 BKN010 TEMPO 2809/2816 2000 SHRA BKN005 BKN015CB TEMPO 2816/2818 12005MPS 1200 BR BKN004
NOTAMshow/hide NOTAM
AWOS   TABLE

Информация о ВПП

ВПП Длина ВПП (м.) Покрытие Курс ВПП Частота ILS
102569Цементобетон103109.3
282569Цементобетон283108.7

Диспетчерские позиции

Позывной Наименование органа УВД Частота
UMGG_APPHomiel Approach126.100
UMGG_TWRHomiel Tower118.100



Спутниковое изображение